Time;durP1;ratioP1;P1;durP2;ratioP2;P2;SDS_P1;SDS_P2;PMS_P1;PMS_P2;Temp;Humidity;BMP_temperature;BMP_pressure;BME280_temperature;BME280_humidity;BME280_pressure;Samples;Min_cycle;Max_cycle;Signal;HPM_P1;HPM_P2
2023/01/25 00:00:05;;;;;;;4.77;3.00;;;3.60;98.00;;;;;;5071581;28;20455;-66
2023/01/25 00:02:32;;;;;;;5.87;3.57;;;3.60;98.00;;;;;;5071566;28;20455;-68
2023/01/25 00:04:59;;;;;;;7.93;3.50;;;3.60;98.00;;;;;;5071603;28;20461;-68
2023/01/25 00:07:26;;;;;;;8.43;4.57;;;3.70;98.00;;;;;;5071598;28;20482;-67
2023/01/25 00:09:53;;;;;;;3.97;3.10;;;3.60;98.00;;;;;;5071361;28;20460;-67
2023/01/25 00:12:22;;;;;;;5.97;3.33;;;3.60;98.00;;;;;;5071366;28;20836;-67
2023/01/25 00:14:49;;;;;;;6.30;3.63;;;3.60;98.00;;;;;;5071250;28;20454;-67
2023/01/25 00:17:17;;;;;;;6.33;3.50;;;3.60;98.00;;;;;;5071219;28;20955;-67
2023/01/25 00:19:44;;;;;;;5.43;3.73;;;3.80;98.00;;;;;;5053585;28;20466;-68
2023/01/25 00:22:12;;;;;;;6.30;3.70;;;3.80;98.00;;;;;;5053501;28;20451;-68
2023/01/25 00:24:39;;;;;;;6.57;3.30;;;3.80;98.00;;;;;;5053599;28;20450;-66
2023/01/25 00:27:07;;;;;;;6.20;3.70;;;3.80;98.00;;;;;;5075077;28;20475;-67
2023/01/25 00:29:35;;;;;;;9.13;3.40;;;3.70;98.00;;;;;;5074445;28;20455;-67
2023/01/25 00:32:28;;;;;;;6.73;3.60;;;3.70;98.00;;;;;;5074627;28;20462;-67
2023/01/25 00:34:55;;;;;;;5.70;3.10;;;3.80;98.00;;;;;;5074830;28;20538;-67
2023/01/25 00:37:30;;;;;;;6.77;3.00;;;3.80;98.00;;;;;;5074773;28;20456;-67
2023/01/25 00:40:00;;;;;;;6.47;3.37;;;3.90;98.00;;;;;;5074871;28;20879;-67
2023/01/25 00:42:27;;;;;;;6.73;3.73;;;3.90;98.00;;;;;;5074599;28;20487;-68
2023/01/25 00:44:56;;;;;;;4.87;3.20;;;3.80;98.00;;;;;;5057023;28;20803;-67
2023/01/25 00:47:23;;;;;;;8.50;3.53;;;3.80;98.00;;;;;;5074607;28;20488;-67
2023/01/25 00:50:01;;;;;;;8.37;4.30;;;3.80;98.00;;;;;;5074571;28;20455;-67
2023/01/25 00:52:28;;;;;;;3.03;2.47;;;3.80;98.00;;;;;;5074800;28;20846;-67
2023/01/25 00:54:55;;;;;;;7.13;3.97;;;3.80;98.00;;;;;;5074589;28;20507;-68
2023/01/25 00:57:23;;;;;;;6.63;3.43;;;3.80;98.00;;;;;;5074545;28;20472;-67
2023/01/25 00:59:50;;;;;;;12.50;3.47;;;3.90;98.00;;;;;;5074394;28;20455;-67
2023/01/25 01:02:19;;;;;;;8.37;3.83;;;3.80;98.00;;;;;;5074505;28;20467;-67
2023/01/25 01:04:46;;;;;;;9.23;3.67;;;3.80;98.00;;;;;;5074439;28;20462;-67
2023/01/25 01:07:15;;;;;;;5.40;3.30;;;3.80;98.00;;;;;;5074217;28;20508;-67
2023/01/25 01:09:43;;;;;;;6.77;3.60;;;3.80;98.00;;;;;;5056745;28;21111;-67
2023/01/25 01:12:10;;;;;;;7.33;3.57;;;3.70;98.00;;;;;;5074341;28;20481;-67
2023/01/25 01:14:37;;;;;;;4.83;3.10;;;3.70;98.00;;;;;;5074090;28;20849;-67
2023/01/25 01:17:04;;;;;;;5.23;3.23;;;3.70;98.00;;;;;;5073938;28;20954;-67
2023/01/25 01:19:32;;;;;;;3.83;2.33;;;3.70;98.00;;;;;;5073991;28;20525;-67
2023/01/25 01:22:00;;;;;;;5.57;2.93;;;3.70;98.00;;;;;;5073670;28;20980;-67
2023/01/25 01:24:29;;;;;;;8.40;4.03;;;3.70;98.00;;;;;;5073961;28;20461;-67
2023/01/25 01:26:57;;;;;;;5.33;3.00;;;3.80;98.00;;;;;;5073760;28;20456;-68
2023/01/25 01:29:25;;;;;;;6.60;3.30;;;3.80;98.00;;;;;;5073846;28;20483;-67
2023/01/25 01:31:52;;;;;;;7.50;2.70;;;3.90;98.00;;;;;;5055939;28;20504;-67
2023/01/25 01:34:20;;;;;;;11.57;4.00;;;3.80;98.00;;;;;;5073748;28;20546;-67
2023/01/25 01:36:48;;;;;;;9.27;5.03;;;3.80;98.00;;;;;;5073555;28;20465;-66
2023/01/25 01:39:15;;;;;;;6.00;4.20;;;3.90;98.00;;;;;;5073738;28;20455;-67
2023/01/25 01:41:42;;;;;;;4.90;3.40;;;4.00;98.00;;;;;;5073657;28;20494;-67
2023/01/25 01:44:17;;;;;;;4.27;3.03;;;3.90;98.00;;;;;;5039445;28;20511;-67
2023/01/25 01:46:54;;;;;;;3.47;2.87;;;3.90;98.00;;;;;;5073444;28;20467;-67
2023/01/25 01:49:26;;;;;;;9.30;4.07;;;3.80;98.00;;;;;;5073621;28;20561;-68
2023/01/25 01:52:01;;;;;;;6.00;4.67;;;3.80;98.00;;;;;;5073495;28;20467;-67
2023/01/25 01:54:32;;;;;;;7.10;2.87;;;4.00;98.00;;;;;;5073667;28;20456;-68
2023/01/25 01:57:05;;;;;;;9.70;3.63;;;4.00;98.00;;;;;;5073486;28;20467;-67
2023/01/25 01:59:36;;;;;;;7.63;3.53;;;4.00;98.00;;;;;;5073426;28;20464;-67
2023/01/25 02:02:03;;;;;;;4.30;2.73;;;3.90;98.00;;;;;;5073460;28;20459;-67
2023/01/25 02:04:34;;;;;;;4.83;2.83;;;4.00;98.00;;;;;;5073264;28;20451;-67
2023/01/25 02:07:06;;;;;;;4.60;2.60;;;4.00;98.00;;;;;;5072683;28;20819;-67
2023/01/25 02:09:36;;;;;;;8.33;3.90;;;4.00;98.00;;;;;;5073051;28;20481;-67
2023/01/25 02:12:04;;;;;;;6.37;3.40;;;3.90;98.00;;;;;;5072886;28;20877;-68
2023/01/25 02:14:31;;;;;;;5.67;3.10;;;3.80;98.00;;;;;;5072784;28;20458;-67
2023/01/25 02:16:59;;;;;;;8.03;4.03;;;3.80;98.00;;;;;;5072724;28;20477;-67
2023/01/25 02:19:42;;;;;;;2.70;1.63;;;3.80;98.00;;;;;;5072768;28;20450;-67
2023/01/25 02:22:17;;;;;;;6.53;2.87;;;3.70;98.00;;;;;;5072856;28;20955;-67
2023/01/25 02:24:50;;;;;;;8.43;4.03;;;3.70;98.00;;;;;;5072558;28;21010;-67
2023/01/25 02:27:19;;;;;;;3.03;2.20;;;3.70;98.00;;;;;;5072611;28;20461;-68
2023/01/25 02:29:47;;;;;;;5.53;2.77;;;3.80;98.00;;;;;;5072563;28;21044;-67
2023/01/25 02:32:17;;;;;;;6.33;3.27;;;3.70;98.00;;;;;;5072551;28;20467;-67
2023/01/25 02:34:44;;;;;;;5.30;3.13;;;3.70;98.00;;;;;;5055166;28;20459;-67
2023/01/25 02:37:26;;;;;;;5.30;3.10;;;3.70;98.00;;;;;;5150867;27;20541;-65
2023/01/25 02:39:54;;;;;;;5.60;3.57;;;3.80;98.00;;;;;;5130450;28;20464;-65
2023/01/25 02:42:21;;;;;;;3.70;2.60;;;3.80;98.00;;;;;;5130274;28;20455;-65
2023/01/25 02:44:49;;;;;;;11.33;3.40;;;3.70;98.00;;;;;;5129177;28;20851;-65
2023/01/25 02:47:16;;;;;;;12.63;3.00;;;3.80;98.00;;;;;;5130154;28;20451;-65
2023/01/25 02:49:43;;;;;;;5.07;3.17;;;3.70;98.00;;;;;;5130318;28;20458;-65
2023/01/25 02:52:10;;;;;;;5.80;2.73;;;3.80;98.00;;;;;;5130199;27;20942;-65
2023/01/25 02:54:39;;;;;;;13.13;3.03;;;3.80;98.00;;;;;;5130301;28;20464;-66
2023/01/25 02:57:06;;;;;;;4.23;2.93;;;3.90;98.00;;;;;;5130218;28;20480;-66
2023/01/25 02:59:34;;;;;;;3.60;2.30;;;3.90;98.00;;;;;;5130403;28;20459;-65
2023/01/25 03:02:01;;;;;;;3.77;2.33;;;3.80;98.00;;;;;;5129810;28;20460;-65
2023/01/25 03:04:28;;;;;;;5.30;3.03;;;3.70;98.00;;;;;;5130231;28;20503;-65
2023/01/25 03:06:55;;;;;;;5.63;2.10;;;3.70;98.00;;;;;;5129558;28;20466;-65
2023/01/25 03:09:22;;;;;;;7.03;2.63;;;3.70;98.00;;;;;;5129929;28;20455;-65
2023/01/25 03:11:51;;;;;;;3.30;2.40;;;3.70;98.00;;;;;;5129485;28;20554;-65
2023/01/25 03:14:18;;;;;;;2.67;2.47;;;3.80;98.00;;;;;;5128921;27;20459;-66
2023/01/25 03:16:45;;;;;;;8.37;3.50;;;4.00;98.00;;;;;;5129496;27;20502;-65
2023/01/25 03:19:12;;;;;;;7.73;3.20;;;4.00;98.00;;;;;;5129412;28;20820;-65
2023/01/25 03:21:41;;;;;;;11.60;2.97;;;4.00;98.00;;;;;;5129309;28;20451;-65
2023/01/25 03:24:11;;;;;;;4.13;2.50;;;3.90;98.00;;;;;;5129238;28;20460;-65
2023/01/25 03:29:20;;;;;;;5.03;2.20;;;3.90;98.00;;;;;;5129041;28;20797;-66
2023/01/25 03:31:47;;;;;;;6.90;2.97;;;3.80;98.00;;;;;;5129164;27;20468;-65
2023/01/25 03:34:14;;;;;;;3.90;2.53;;;3.80;98.00;;;;;;5128152;28;20456;-65
2023/01/25 03:36:41;;;;;;;3.50;2.70;;;3.80;98.00;;;;;;5128935;28;20479;-65
2023/01/25 03:39:11;;;;;;;5.70;2.80;;;3.60;98.00;;;;;;5129337;28;21164;-65
2023/01/25 03:41:38;;;;;;;6.73;3.30;;;3.70;98.00;;;;;;5129123;28;20459;-66
2023/01/25 03:44:05;;;;;;;4.50;2.67;;;3.90;98.00;;;;;;5129123;28;20456;-65
2023/01/25 03:46:34;;;;;;;5.67;2.70;;;3.90;98.00;;;;;;5128820;27;20459;-65
2023/01/25 03:49:01;;;;;;;4.47;3.10;;;3.80;98.00;;;;;;5096854;28;20453;-65
2023/01/25 03:51:28;;;;;;;4.70;3.10;;;3.80;98.00;;;;;;5114391;28;20457;-65
2023/01/25 03:53:55;;;;;;;3.97;2.27;;;3.80;98.00;;;;;;5115260;28;20813;-66
2023/01/25 03:56:22;;;;;;;3.87;2.53;;;3.70;98.00;;;;;;5115382;28;21027;-65
2023/01/25 03:58:49;;;;;;;5.53;3.43;;;3.60;98.00;;;;;;5114475;28;20460;-66
2023/01/25 04:01:16;;;;;;;4.43;2.70;;;3.70;98.00;;;;;;5114798;28;20460;-66
2023/01/25 04:03:45;;;;;;;4.40;2.60;;;3.70;98.00;;;;;;5114708;28;20457;-66
2023/01/25 04:06:12;;;;;;;3.37;2.37;;;3.70;98.00;;;;;;5114661;28;20463;-65
2023/01/25 04:08:40;;;;;;;9.07;2.73;;;3.60;98.00;;;;;;5114176;28;20845;-64
2023/01/25 04:11:09;;;;;;;2.47;1.83;;;3.60;98.00;;;;;;5114974;28;20447;-65
2023/01/25 04:13:37;;;;;;;5.90;3.10;;;3.60;98.00;;;;;;5115165;28;20464;-65
2023/01/25 04:16:04;;;;;;;5.33;2.73;;;3.60;98.00;;;;;;5114669;28;20984;-65
2023/01/25 04:18:32;;;;;;;8.50;3.27;;;3.70;98.00;;;;;;5114827;28;20459;-65
2023/01/25 04:21:00;;;;;;;5.83;2.70;;;3.70;98.00;;;;;;5114865;28;20466;-65
2023/01/25 04:23:27;;;;;;;3.53;2.73;;;3.70;98.00;;;;;;5114608;28;20458;-65
2023/01/25 04:25:55;;;;;;;6.67;2.07;;;3.60;98.00;;;;;;5114843;28;20452;-66
2023/01/25 04:28:22;;;;;;;2.50;2.20;;;3.70;98.00;;;;;;5114600;28;20467;-64
2023/01/25 04:30:50;;;;;;;2.80;2.03;;;3.70;98.00;;;;;;5114458;28;20456;-65
2023/01/25 04:33:17;;;;;;;4.27;2.13;;;3.60;98.00;;;;;;5114337;28;20464;-65
2023/01/25 04:35:44;;;;;;;2.77;2.10;;;3.70;98.00;;;;;;5114259;28;20518;-65
2023/01/25 04:38:13;;;;;;;2.90;1.90;;;3.60;98.00;;;;;;5114344;28;20449;-65
2023/01/25 04:40:40;;;;;;;3.37;1.93;;;3.60;98.00;;;;;;5114633;28;20871;-65
2023/01/25 04:43:07;;;;;;;3.33;2.03;;;3.40;98.00;;;;;;5114246;28;21544;-65
2023/01/25 04:45:35;;;;;;;4.67;2.80;;;3.50;98.00;;;;;;5114480;28;20461;-65
2023/01/25 04:48:03;;;;;;;5.47;2.60;;;3.50;98.00;;;;;;5114153;28;20539;-65
2023/01/25 04:50:31;;;;;;;3.37;2.40;;;3.40;98.00;;;;;;5114323;28;20509;-65
2023/01/25 04:52:58;;;;;;;6.30;2.43;;;3.40;98.00;;;;;;5114302;28;20464;-65
2023/01/25 04:55:27;;;;;;;2.27;2.10;;;3.40;98.00;;;;;;5114304;28;20460;-65
2023/01/25 04:57:54;;;;;;;3.67;1.90;;;3.30;98.00;;;;;;5114250;28;20488;-65
2023/01/25 05:00:21;;;;;;;2.13;1.50;;;3.30;98.00;;;;;;5112954;28;20957;-65
2023/01/25 05:02:48;;;;;;;4.27;3.00;;;3.30;98.00;;;;;;5114030;28;20459;-65
2023/01/25 05:05:15;;;;;;;2.77;2.27;;;3.30;98.00;;;;;;5113773;28;20950;-68
2023/01/25 05:07:42;;;;;;;3.20;2.50;;;3.30;98.00;;;;;;5114114;28;20770;-65
2023/01/25 05:10:12;;;;;;;3.10;2.00;;;3.30;98.00;;;;;;5113533;28;20491;-66
2023/01/25 05:12:41;;;;;;;7.13;2.93;;;3.30;98.00;;;;;;5113644;28;20463;-66
2023/01/25 05:15:08;;;;;;;7.77;3.73;;;3.40;98.00;;;;;;5113703;28;20459;-65
2023/01/25 05:17:36;;;;;;;4.80;2.90;;;3.40;98.00;;;;;;5113600;28;20484;-65
2023/01/25 05:20:04;;;;;;;4.60;3.00;;;3.40;98.00;;;;;;5112426;28;20459;-66
2023/01/25 05:22:31;;;;;;;3.73;2.13;;;3.30;98.00;;;;;;5113437;28;20449;-65
2023/01/25 05:25:00;;;;;;;6.90;3.03;;;3.30;98.00;;;;;;5113219;28;20463;-65
2023/01/25 05:27:27;;;;;;;5.47;3.13;;;3.30;98.00;;;;;;5113352;28;20467;-65
2023/01/25 05:29:56;;;;;;;4.50;2.90;;;3.50;98.00;;;;;;5113074;28;20548;-65
2023/01/25 05:32:24;;;;;;;4.47;2.53;;;3.50;98.00;;;;;;5113372;28;20449;-65
2023/01/25 05:34:51;;;;;;;2.40;1.80;;;3.40;98.00;;;;;;5113205;28;20462;-64
2023/01/25 05:37:20;;;;;;;2.03;1.70;;;3.40;98.00;;;;;;5111612;28;20498;-65
2023/01/25 05:39:47;;;;;;;3.10;2.13;;;3.40;98.00;;;;;;5113293;28;20463;-65
2023/01/25 05:42:16;;;;;;;7.23;1.87;;;3.40;98.00;;;;;;5113270;28;20789;-65
2023/01/25 05:44:44;;;;;;;2.80;2.30;;;3.50;98.00;;;;;;5113262;28;20504;-65
2023/01/25 05:47:15;;;;;;;2.60;2.13;;;3.50;98.00;;;;;;5113079;28;20463;-65
2023/01/25 05:49:46;;;;;;;6.07;2.80;;;3.50;98.00;;;;;;5113091;28;20453;-65
2023/01/25 05:52:14;;;;;;;3.10;2.03;;;3.60;98.00;;;;;;5113317;28;20464;-65
2023/01/25 05:54:41;;;;;;;3.67;2.90;;;3.50;98.00;;;;;;5113138;28;20960;-64
2023/01/25 05:57:08;;;;;;;2.43;1.80;;;3.40;98.00;;;;;;5113114;28;20515;-65
2023/01/25 05:59:36;;;;;;;2.13;1.97;;;3.40;98.00;;;;;;5112916;28;20455;-64
2023/01/25 06:02:05;;;;;;;3.60;2.67;;;3.40;98.00;;;;;;5112797;28;21019;-65
2023/01/25 06:04:34;;;;;;;2.60;1.73;;;3.30;98.00;;;;;;5113134;28;20480;-65
2023/01/25 06:07:02;;;;;;;4.80;2.53;;;3.30;98.00;;;;;;5112764;28;20453;-65
2023/01/25 06:09:29;;;;;;;4.27;2.93;;;3.40;98.00;;;;;;5111713;28;20938;-65
2023/01/25 06:11:56;;;;;;;2.43;2.10;;;3.40;98.00;;;;;;5112382;28;20457;-65
2023/01/25 06:14:23;;;;;;;3.83;2.63;;;3.40;98.00;;;;;;5112714;28;20446;-65
2023/01/25 06:16:51;;;;;;;4.00;2.10;;;3.50;98.00;;;;;;5111330;28;20485;-65
2023/01/25 06:19:18;;;;;;;2.53;2.03;;;3.40;98.00;;;;;;5112571;28;20947;-65
2023/01/25 06:21:46;;;;;;;5.47;2.03;;;3.40;98.00;;;;;;5111277;28;20453;-65
2023/01/25 06:24:13;;;;;;;5.23;2.50;;;3.40;98.00;;;;;;5112368;28;20464;-65
2023/01/25 06:26:40;;;;;;;4.03;2.57;;;3.40;98.00;;;;;;5112521;28;20502;-65
2023/01/25 06:29:08;;;;;;;5.13;2.10;;;3.30;98.00;;;;;;5112328;28;20460;-66
2023/01/25 06:31:35;;;;;;;6.10;2.33;;;3.30;98.00;;;;;;5112614;28;20484;-65
2023/01/25 06:34:05;;;;;;;2.27;2.00;;;3.40;98.00;;;;;;5112280;28;20452;-65
2023/01/25 06:36:32;;;;;;;2.50;2.23;;;3.60;98.00;;;;;;5111058;28;20481;-65
2023/01/25 06:39:01;;;;;;;5.27;2.90;;;3.50;98.00;;;;;;5112254;28;20510;-65
2023/01/25 06:41:28;;;;;;;4.03;2.27;;;3.40;98.00;;;;;;5112412;28;20946;-65
2023/01/25 06:43:56;;;;;;;7.13;2.83;;;3.60;98.00;;;;;;5112353;28;20817;-65
2023/01/25 06:46:23;;;;;;;4.93;2.60;;;3.50;98.00;;;;;;5111283;28;20457;-65
2023/01/25 06:48:50;;;;;;;6.57;3.33;;;3.50;98.00;;;;;;5112554;28;20448;-65
2023/01/25 06:51:17;;;;;;;11.03;4.57;;;3.50;98.00;;;;;;5112273;28;20853;-65
2023/01/25 06:53:46;;;;;;;4.90;3.40;;;3.50;98.00;;;;;;5112453;28;20480;-65
2023/01/25 06:56:16;;;;;;;5.97;3.37;;;3.50;98.00;;;;;;5111465;28;20482;-65
2023/01/25 06:58:44;;;;;;;4.00;1.90;;;3.40;98.00;;;;;;5112315;28;20487;-65
2023/01/25 07:01:14;;;;;;;5.30;3.03;;;3.40;98.00;;;;;;5112177;28;20863;-61
2023/01/25 07:03:44;;;;;;;3.10;2.17;;;3.40;98.00;;;;;;5112008;28;20451;-61
2023/01/25 07:06:12;;;;;;;4.00;2.37;;;3.40;98.00;;;;;;5112136;28;20460;-60
2023/01/25 07:08:40;;;;;;;3.57;2.47;;;3.30;98.00;;;;;;5111934;28;20464;-61
2023/01/25 07:11:12;;;;;;;3.40;2.50;;;3.30;98.00;;;;;;5111996;28;20516;-61
2023/01/25 07:13:41;;;;;;;4.50;2.50;;;3.30;98.00;;;;;;5111986;28;20475;-61
2023/01/25 07:16:12;;;;;;;6.87;2.63;;;3.40;98.00;;;;;;5111978;28;21040;-62
2023/01/25 07:18:39;;;;;;;3.63;2.47;;;3.50;98.00;;;;;;5111253;28;20480;-61
2023/01/25 07:21:08;;;;;;;4.50;2.00;;;3.50;98.00;;;;;;5111065;28;20461;-61
2023/01/25 07:23:36;;;;;;;10.53;3.20;;;3.50;98.00;;;;;;5113935;28;20843;-61
2023/01/25 07:26:04;;;;;;;2.50;1.93;;;3.50;98.00;;;;;;5114955;28;20456;-60
2023/01/25 07:28:32;;;;;;;4.50;2.70;;;3.60;98.00;;;;;;5114685;28;20945;-60
2023/01/25 07:31:06;;;;;;;3.67;2.30;;;3.70;98.00;;;;;;5114802;28;20949;-60
2023/01/25 07:33:33;;;;;;;5.37;3.47;;;3.60;98.00;;;;;;5115282;28;20550;-60
2023/01/25 07:36:01;;;;;;;4.43;2.27;;;3.60;98.00;;;;;;5115025;27;20529;-60
2023/01/25 07:38:30;;;;;;;3.77;2.37;;;3.60;98.00;;;;;;5114727;28;20489;-61
2023/01/25 07:40:57;;;;;;;4.23;2.40;;;3.60;98.00;;;;;;5114866;28;20459;-60
2023/01/25 07:43:26;;;;;;;4.10;2.27;;;3.70;98.00;;;;;;5114791;28;20458;-60
2023/01/25 07:45:53;;;;;;;3.83;2.17;;;3.60;98.00;;;;;;5114713;28;20480;-61
2023/01/25 07:48:22;;;;;;;2.30;1.77;;;3.50;98.00;;;;;;5114597;28;20454;-60
2023/01/25 07:51:10;;;;;;;2.87;2.30;;;3.50;98.00;;;;;;5114560;28;20461;-61
2023/01/25 07:53:36;;;;;;;3.93;2.23;;;3.50;98.00;;;;;;5114375;28;20980;-60
2023/01/25 07:56:04;;;;;;;4.10;2.60;;;3.70;98.00;;;;;;5114764;28;20468;-61
2023/01/25 07:58:31;;;;;;;2.27;2.10;;;3.70;98.00;;;;;;5113449;28;20488;-61
2023/01/25 08:00:58;;;;;;;4.80;2.30;;;3.60;98.00;;;;;;5114737;28;21154;-60
2023/01/25 08:03:27;;;;;;;4.67;2.87;;;3.70;98.00;;;;;;5114417;28;20445;-60
2023/01/25 08:05:54;;;;;;;3.87;2.70;;;3.70;98.00;;;;;;5114037;28;20456;-60
2023/01/25 08:08:21;;;;;;;4.70;2.30;;;3.70;98.00;;;;;;5114223;28;20829;-60
2023/01/25 08:10:48;;;;;;;5.53;1.80;;;3.70;98.00;;;;;;5114296;28;20495;-60
2023/01/25 08:13:15;;;;;;;4.57;2.93;;;3.70;98.00;;;;;;5114060;28;20452;-60
2023/01/25 08:15:44;;;;;;;3.97;2.77;;;3.80;98.00;;;;;;5114136;28;20464;-60
2023/01/25 08:18:12;;;;;;;6.90;3.93;;;3.70;98.00;;;;;;5113946;28;20486;-60
2023/01/25 08:20:40;;;;;;;3.50;2.80;;;3.70;98.00;;;;;;5113913;28;20557;-61
2023/01/25 08:23:08;;;;;;;4.23;2.93;;;3.70;98.00;;;;;;5113922;28;20461;-60
2023/01/25 08:25:35;;;;;;;2.80;2.07;;;3.60;98.00;;;;;;5113969;28;20458;-61
2023/01/25 08:28:02;;;;;;;3.13;2.10;;;3.70;98.00;;;;;;5113778;28;20453;-60
2023/01/25 08:30:29;;;;;;;4.73;2.90;;;3.70;98.00;;;;;;5114119;28;20461;-60
2023/01/25 08:32:56;;;;;;;6.30;2.60;;;3.60;98.00;;;;;;5113591;28;20468;-60
2023/01/25 08:35:24;;;;;;;4.83;2.40;;;3.60;98.00;;;;;;5113722;28;20855;-60
2023/01/25 08:37:53;;;;;;;6.30;3.07;;;3.70;98.00;;;;;;5113414;28;20978;-60
2023/01/25 08:40:20;;;;;;;4.13;2.73;;;3.90;98.00;;;;;;5113580;28;20974;-60
2023/01/25 08:42:47;;;;;;;5.17;2.37;;;3.90;98.00;;;;;;5113480;28;20461;-60
2023/01/25 08:45:15;;;;;;;9.80;3.40;;;3.80;98.00;;;;;;5112049;27;20861;-60
2023/01/25 08:47:42;;;;;;;5.87;2.93;;;3.80;98.00;;;;;;5113243;28;20453;-60
2023/01/25 08:50:10;;;;;;;3.13;2.23;;;3.90;98.00;;;;;;5113419;28;20461;-60
2023/01/25 08:52:37;;;;;;;3.33;2.17;;;4.10;98.00;;;;;;5113585;28;20522;-60
2023/01/25 08:55:06;;;;;;;4.37;3.13;;;4.10;98.00;;;;;;5113485;28;20463;-60
2023/01/25 08:57:33;;;;;;;5.20;2.77;;;4.00;98.00;;;;;;5112986;28;20476;-62
2023/01/25 09:00:00;;;;;;;3.00;2.53;;;4.10;98.00;;;;;;5113217;28;20451;-61
2023/01/25 09:02:28;;;;;;;7.07;3.03;;;4.20;98.00;;;;;;5113296;28;20458;-60
2023/01/25 09:04:55;;;;;;;6.17;3.20;;;4.00;98.00;;;;;;5112147;28;20453;-60
2023/01/25 09:07:23;;;;;;;6.20;3.03;;;3.90;98.00;;;;;;5111736;28;20456;-61
2023/01/25 09:09:50;;;;;;;11.43;2.80;;;3.90;98.00;;;;;;5113820;28;20451;-61
2023/01/25 09:12:18;;;;;;;3.90;2.67;;;3.80;98.00;;;;;;5113431;28;20861;-61
2023/01/25 09:14:45;;;;;;;3.00;2.57;;;3.90;98.00;;;;;;5113848;28;20943;-61
2023/01/25 09:17:12;;;;;;;5.63;2.77;;;4.00;98.00;;;;;;5113241;28;20461;-61
2023/01/25 09:19:41;;;;;;;9.37;3.17;;;4.10;98.00;;;;;;5113139;28;20506;-61
2023/01/25 09:22:09;;;;;;;2.90;2.13;;;4.00;98.00;;;;;;5113034;28;20817;-61
2023/01/25 09:24:36;;;;;;;4.93;3.20;;;4.00;98.00;;;;;;5112797;28;20457;-61
2023/01/25 09:27:03;;;;;;;6.93;3.00;;;3.90;98.00;;;;;;5112660;28;20461;-62
2023/01/25 09:29:31;;;;;;;2.60;2.00;;;3.90;98.00;;;;;;5112537;28;20461;-61
2023/01/25 09:31:58;;;;;;;3.83;2.73;;;3.90;98.00;;;;;;5112554;28;20509;-61
2023/01/25 09:34:26;;;;;;;5.17;2.60;;;3.90;98.00;;;;;;5112559;28;20457;-61
2023/01/25 09:36:53;;;;;;;7.67;2.63;;;4.00;98.00;;;;;;5112292;28;20457;-61
2023/01/25 09:39:20;;;;;;;2.60;2.20;;;4.10;98.00;;;;;;5112601;28;20846;-61
2023/01/25 09:42:19;;;;;;;2.67;2.20;;;4.10;98.00;;;;;;5112458;28;20449;-61
2023/01/25 09:45:02;;;;;;;5.53;3.00;;;4.10;98.00;;;;;;5099720;28;20466;-61
2023/01/25 09:47:38;;;;;;;3.63;2.80;;;4.10;98.00;;;;;;5112275;28;20465;-61
2023/01/25 09:50:25;;;;;;;2.83;2.20;;;4.20;98.00;;;;;;5103577;28;20464;-62
2023/01/25 09:53:16;;;;;;;9.20;3.50;;;4.10;98.00;;;;;;5112324;28;20460;-61
2023/01/25 09:55:45;;;;;;;4.13;2.70;;;4.10;98.00;;;;;;5112453;28;20936;-61
2023/01/25 09:58:18;;;;;;;4.23;3.30;;;4.20;98.00;;;;;;5111914;28;20869;-61
2023/01/25 10:00:49;;;;;;;4.40;3.27;;;4.20;98.00;;;;;;5111565;28;20548;-61
2023/01/25 10:03:22;;;;;;;6.37;3.63;;;4.30;98.00;;;;;;5111995;28;20792;-61
2023/01/25 10:05:51;;;;;;;6.60;2.90;;;4.20;98.00;;;;;;5111844;28;20866;-61
2023/01/25 10:08:27;;;;;;;5.87;3.03;;;4.20;98.00;;;;;;5111875;28;20515;-61
2023/01/25 10:11:00;;;;;;;6.40;3.30;;;4.20;98.00;;;;;;5111737;28;20457;-60
2023/01/25 10:13:30;;;;;;;6.00;3.00;;;4.00;98.00;;;;;;5111810;28;20454;-61
2023/01/25 10:16:05;;;;;;;6.53;3.07;;;4.00;98.00;;;;;;5111624;28;20461;-61
2023/01/25 10:18:38;;;;;;;4.03;2.63;;;4.00;98.00;;;;;;5111675;28;20849;-61
2023/01/25 10:21:12;;;;;;;6.50;2.50;;;3.90;98.00;;;;;;5093619;28;20462;-61
2023/01/25 10:24:05;;;;;;;4.20;3.20;;;3.90;98.00;;;;;;5110346;28;20813;-61
2023/01/25 10:26:34;;;;;;;5.07;2.87;;;3.80;98.00;;;;;;5101207;28;20463;-61
2023/01/25 10:29:10;;;;;;;5.63;4.10;;;3.80;98.00;;;;;;5110126;28;20454;-61
2023/01/25 10:31:47;;;;;;;6.37;3.10;;;4.10;98.00;;;;;;5111510;28;20457;-61
2023/01/25 10:34:19;;;;;;;6.27;3.10;;;4.20;98.00;;;;;;5111365;28;20459;-61
2023/01/25 10:36:48;;;;;;;4.97;3.20;;;4.10;98.00;;;;;;5110280;28;20465;-61
2023/01/25 10:39:17;;;;;;;5.97;3.23;;;4.00;98.00;;;;;;5110073;28;20487;-61
2023/01/25 10:41:49;;;;;;;4.77;3.07;;;4.00;98.00;;;;;;5111721;28;20465;-62
2023/01/25 10:44:23;;;;;;;8.73;2.77;;;4.10;98.00;;;;;;5110526;28;20643;-61
2023/01/25 10:46:59;;;;;;;6.00;3.60;;;4.20;98.00;;;;;;5111751;28;20460;-61
2023/01/25 10:49:35;;;;;;;5.83;3.13;;;4.10;98.00;;;;;;5105272;28;20465;-61
2023/01/25 10:52:15;;;;;;;6.70;3.33;;;4.10;98.00;;;;;;5109686;28;20454;-62
2023/01/25 10:54:42;;;;;;;3.37;2.43;;;4.10;98.00;;;;;;5111421;28;20496;-62
2023/01/25 10:57:12;;;;;;;4.43;2.80;;;4.00;98.00;;;;;;5112096;28;20997;-61
2023/01/25 10:59:39;;;;;;;5.37;2.97;;;4.00;98.00;;;;;;5115559;28;20552;-61
2023/01/25 11:02:41;;;;;;;5.00;3.63;;;3.90;98.00;;;;;;5115277;28;20449;-61
2023/01/25 11:05:30;;;;;;;12.40;4.13;;;3.90;98.00;;;;;;5115310;28;20538;-61
2023/01/25 11:07:58;;;;;;;5.10;3.23;;;3.80;98.00;;;;;;5115227;28;20856;-61
2023/01/25 11:10:32;;;;;;;6.30;4.20;;;3.90;98.00;;;;;;5115211;27;20501;-61
2023/01/25 11:13:29;;;;;;;5.40;2.90;;;3.90;98.00;;;;;;5115106;28;20544;-61
2023/01/25 11:16:16;;;;;;;5.03;2.93;;;3.90;98.00;;;;;;5114987;27;20456;-61
2023/01/25 11:18:54;;;;;;;7.30;3.73;;;4.00;98.00;;;;;;5113801;28;20491;-61
2023/01/25 11:21:24;;;;;;;4.97;3.20;;;3.90;98.00;;;;;;5115161;28;20465;-61
2023/01/25 11:24:21;;;;;;;5.30;2.40;;;3.90;98.00;;;;;;5114918;28;20729;-62
2023/01/25 11:26:48;;;;;;;5.07;3.20;;;3.80;98.00;;;;;;5097441;28;20975;-61
2023/01/25 11:29:17;;;;;;;6.73;3.97;;;3.80;98.00;;;;;;5115034;28;20452;-61
2023/01/25 11:31:47;;;;;;;4.70;3.23;;;3.80;98.00;;;;;;5114817;28;20855;-61
2023/01/25 11:34:17;;;;;;;4.30;2.83;;;3.80;98.00;;;;;;5114723;28;20981;-61
2023/01/25 11:37:21;;;;;;;4.60;3.03;;;3.80;98.00;;;;;;5114605;28;20469;-62
2023/01/25 11:39:59;;;;;;;3.53;2.60;;;3.80;98.00;;;;;;5095086;28;20499;-61
2023/01/25 11:42:33;;;;;;;5.17;2.93;;;3.70;98.00;;;;;;5114658;28;20451;-61
2023/01/25 11:45:15;;;;;;;7.37;3.33;;;3.70;98.00;;;;;;5114583;28;20472;-61
2023/01/25 11:47:58;;;;;;;7.03;3.27;;;3.70;98.00;;;;;;5114495;28;20814;-61
2023/01/25 11:50:34;;;;;;;2.73;2.33;;;3.80;98.00;;;;;;5114730;28;20457;-61
2023/01/25 11:53:33;;;;;;;7.83;3.63;;;3.90;98.00;;;;;;5114571;28;20467;-61
2023/01/25 11:56:10;;;;;;;4.90;3.00;;;3.80;98.00;;;;;;5114744;28;20452;-62
2023/01/25 11:59:09;;;;;;;3.30;2.83;;;3.70;98.00;;;;;;5114260;28;20530;-61
2023/01/25 12:01:53;;;;;;;4.60;3.30;;;3.80;98.00;;;;;;5114321;28;20464;-61
2023/01/25 12:04:41;;;;;;;4.70;2.80;;;3.80;98.00;;;;;;5114408;28;20451;-61
2023/01/25 12:07:18;;;;;;;4.70;2.77;;;3.80;98.00;;;;;;5114077;28;20459;-61
2023/01/25 12:10:09;;;;;;;8.70;3.47;;;3.70;98.00;;;;;;5113115;28;20478;-61
2023/01/25 12:12:43;;;;;;;5.00;3.63;;;3.80;98.00;;;;;;5114020;28;20455;-61
2023/01/25 12:15:35;;;;;;;8.17;3.70;;;3.90;98.00;;;;;;5114485;28;20453;-61
2023/01/25 12:18:24;;;;;;;6.00;3.17;;;3.90;98.00;;;;;;5113771;28;20464;-61
2023/01/25 12:21:10;;;;;;;11.93;4.17;;;3.90;98.00;;;;;;5113668;28;20453;-61
2023/01/25 12:26:18;;;;;;;4.60;3.40;;;4.10;98.00;;;;;;5072623;28;20478;-63
2023/01/25 12:28:50;;;;;;;3.37;2.57;;;4.10;98.00;;;;;;5071815;28;20464;-63
2023/01/25 12:31:23;;;;;;;9.27;4.13;;;4.20;98.00;;;;;;5073134;28;20459;-63
2023/01/25 12:33:56;;;;;;;5.60;3.07;;;4.00;98.00;;;;;;5072890;28;20458;-63
2023/01/25 12:36:31;;;;;;;4.70;2.60;;;3.80;98.00;;;;;;5073079;28;20457;-63
2023/01/25 12:39:02;;;;;;;3.90;2.90;;;3.80;98.00;;;;;;5072483;28;20540;-63
2023/01/25 12:41:40;;;;;;;8.63;4.80;;;3.80;98.00;;;;;;5072934;28;20559;-63
2023/01/25 12:44:14;;;;;;;5.07;2.77;;;3.80;98.00;;;;;;5072804;28;20866;-63
2023/01/25 12:46:49;;;;;;;3.53;2.57;;;3.80;98.00;;;;;;5072612;28;20467;-63
2023/01/25 12:49:24;;;;;;;4.97;2.90;;;3.70;98.00;;;;;;5072717;28;20455;-64
2023/01/25 12:51:56;;;;;;;12.27;3.73;;;3.80;98.00;;;;;;5072745;28;20453;-63
2023/01/25 12:54:29;;;;;;;5.60;3.10;;;3.80;98.00;;;;;;5072874;28;20473;-64
2023/01/25 15:03:18;;;;;;;5.00;2.63;;;4.00;98.00;;;;;;4981483;28;20476;-86
2023/01/25 18:22:37;;;;;;;3.20;2.37;;;3.50;98.00;;;;;;5069358;22;20435;-68
2023/01/25 18:25:07;;;;;;;3.53;2.73;;;3.50;98.00;;;;;;5091259;28;20464;-68
2023/01/25 18:27:34;;;;;;;4.57;2.27;;;3.40;98.00;;;;;;5091483;28;20468;-68
2023/01/25 18:30:07;;;;;;;5.33;3.23;;;3.40;98.00;;;;;;5091317;28;20499;-69
2023/01/25 18:32:34;;;;;;;3.47;2.43;;;3.40;98.00;;;;;;5091584;28;20544;-68
2023/01/25 18:35:02;;;;;;;3.90;2.33;;;3.40;98.00;;;;;;5073815;28;20453;-68
2023/01/25 18:37:34;;;;;;;5.10;3.40;;;3.50;98.00;;;;;;5091323;28;20505;-68
2023/01/25 18:40:04;;;;;;;3.00;2.50;;;3.60;98.00;;;;;;5091120;28;20490;-68
2023/01/25 18:42:32;;;;;;;3.40;2.23;;;3.50;98.00;;;;;;5091240;28;20483;-68